Time;durP1;ratioP1;P1;durP2;ratioP2;P2;SDS_P1;SDS_P2;PMS_P1;PMS_P2;Temp;Humidity;BMP_temperature;BMP_pressure;BME280_temperature;BME280_humidity;BME280_pressure;Samples;Min_cycle;Max_cycle;Signal;HPM_P1;HPM_P2
2022/06/30 00:01:39;;;;;;;2.75;2.53;;;19.50;99.90;;;;;;5025742;28;20098;-85
2022/06/30 00:04:05;;;;;;;3.20;2.88;;;19.50;99.90;;;;;;5033399;28;20045;-80
2022/06/30 00:06:31;;;;;;;4.15;3.13;;;19.40;99.90;;;;;;5034554;28;20038;-79
2022/06/30 00:08:57;;;;;;;3.60;2.70;;;19.40;99.90;;;;;;5037485;28;20010;-80
2022/06/30 00:11:22;;;;;;;5.03;3.03;;;19.40;99.90;;;;;;5030553;28;20074;-80
2022/06/30 00:13:48;;;;;;;5.60;2.92;;;19.30;99.90;;;;;;5033339;28;20027;-80
2022/06/30 00:16:14;;;;;;;3.20;2.90;;;19.30;99.90;;;;;;5019719;28;20042;-85
2022/06/30 00:18:40;;;;;;;3.67;2.58;;;19.30;99.90;;;;;;5007772;28;20026;-85
2022/06/30 00:21:06;;;;;;;3.38;2.92;;;19.30;99.90;;;;;;5008120;28;20037;-83
2022/06/30 00:23:31;;;;;;;5.30;2.95;;;19.30;99.90;;;;;;5009848;28;20100;-83
2022/06/30 00:25:57;;;;;;;3.55;3.00;;;19.30;99.90;;;;;;5012635;28;20511;-82
2022/06/30 00:28:23;;;;;;;3.72;2.60;;;19.20;99.90;;;;;;5003266;28;20068;-82
2022/06/30 00:30:51;;;;;;;5.88;3.33;;;19.20;99.90;;;;;;4999638;28;20033;-84
2022/06/30 00:33:17;;;;;;;4.30;2.88;;;19.20;99.90;;;;;;4996392;28;20056;-79
2022/06/30 00:35:44;;;;;;;3.58;2.90;;;19.10;99.90;;;;;;5002256;28;20538;-81
2022/06/30 00:38:10;;;;;;;6.07;3.28;;;19.10;99.90;;;;;;5010965;28;20056;-85
2022/06/30 00:40:36;;;;;;;7.32;3.42;;;19.00;99.90;;;;;;5006094;28;20038;-83
2022/06/30 00:43:02;;;;;;;4.82;3.30;;;19.00;99.90;;;;;;5012817;28;20026;-82
2022/06/30 00:45:28;;;;;;;3.63;3.00;;;19.00;99.90;;;;;;5006953;28;20486;-79
2022/06/30 00:47:55;;;;;;;4.43;2.83;;;18.90;99.90;;;;;;5012807;28;20436;-86
2022/06/30 00:50:20;;;;;;;7.22;3.55;;;18.90;99.90;;;;;;5001465;28;20611;-86
2022/06/30 00:52:50;;;;;;;4.22;3.08;;;18.90;99.90;;;;;;5006724;28;20054;-86
2022/06/30 00:55:18;;;;;;;5.22;3.50;;;18.80;99.90;;;;;;5009333;28;20048;-85
2022/06/30 00:57:45;;;;;;;6.88;3.40;;;18.80;99.90;;;;;;5005914;28;20056;-85
2022/06/30 01:00:12;;;;;;;3.17;2.90;;;18.70;99.90;;;;;;5006644;28;20061;-82
2022/06/30 01:02:39;;;;;;;7.53;3.30;;;18.70;99.90;;;;;;5004856;28;20387;-86
2022/06/30 01:05:05;;;;;;;3.25;2.95;;;;;;;;;;5009452;28;20030;-84
2022/06/30 01:07:31;;;;;;;3.72;3.42;;;18.60;99.90;;;;;;5008657;28;20113;-84
2022/06/30 01:12:46;;;;;;;3.70;3.30;;;18.60;99.90;;;;;;5003903;28;20395;-85
2022/06/30 01:15:18;;;;;;;4.25;3.50;;;18.60;99.90;;;;;;5005547;28;20037;-85
2022/06/30 01:17:46;;;;;;;9.52;4.57;;;18.50;99.90;;;;;;5004030;28;20026;-85
2022/06/30 01:20:13;;;;;;;9.50;5.13;;;18.50;99.90;;;;;;5003121;28;20023;-85
2022/06/30 01:22:38;;;;;;;7.22;4.95;;;18.50;99.90;;;;;;5009417;28;20484;-85
2022/06/30 01:25:05;;;;;;;6.20;4.90;;;18.50;99.90;;;;;;5011138;28;20030;-86
2022/06/30 01:27:31;;;;;;;6.68;4.45;;;18.50;99.90;;;;;;5010872;28;20018;-83
2022/06/30 01:29:58;;;;;;;5.88;4.90;;;18.50;99.90;;;;;;5003417;28;20037;-84
2022/06/30 01:32:25;;;;;;;5.47;4.50;;;18.50;99.90;;;;;;5008259;28;20573;-82
2022/06/30 01:34:51;;;;;;;4.65;4.22;;;18.50;99.90;;;;;;5005209;28;20107;-83
2022/06/30 01:37:17;;;;;;;5.30;4.80;;;18.40;99.90;;;;;;5009212;28;20390;-88
2022/06/30 01:39:42;;;;;;;4.85;4.45;;;18.40;99.90;;;;;;5001835;28;20117;-87
2022/06/30 01:42:08;;;;;;;4.35;4.00;;;18.40;99.90;;;;;;5012691;28;20081;-86
2022/06/30 01:44:34;;;;;;;7.63;5.45;;;18.30;99.90;;;;;;5004177;28;20022;-83
2022/06/30 01:47:00;;;;;;;7.95;5.47;;;18.30;99.90;;;;;;5012143;28;20037;-86
2022/06/30 01:49:26;;;;;;;5.70;5.18;;;18.20;99.90;;;;;;5011379;28;20391;-80
2022/06/30 01:51:51;;;;;;;7.57;5.15;;;18.20;99.90;;;;;;5003884;28;20079;-85
2022/06/30 01:54:17;;;;;;;6.78;5.18;;;18.30;99.90;;;;;;5011954;28;20653;-85
2022/06/30 01:56:42;;;;;;;7.63;4.75;;;18.30;99.90;;;;;;5010369;28;20034;-85
2022/06/30 01:59:08;;;;;;;6.85;5.10;;;18.20;99.90;;;;;;4999432;28;20031;-85
2022/06/30 02:01:34;;;;;;;6.97;5.28;;;18.20;99.90;;;;;;5004956;28;20053;-85
2022/06/30 02:06:44;;;;;;;7.38;5.13;;;18.20;99.90;;;;;;5008347;28;20041;-85
2022/06/30 02:09:10;;;;;;;5.93;4.57;;;18.10;99.90;;;;;;5012090;28;20489;-86
2022/06/30 02:11:36;;;;;;;5.15;4.65;;;;;;;;;;5000013;28;20026;-86
2022/06/30 02:14:02;;;;;;;7.45;4.95;;;;;;;;;;5008194;28;20085;-85
2022/06/30 02:16:28;;;;;;;5.10;4.70;;;;;;;;;;5010102;28;20025;-80
2022/06/30 02:18:55;;;;;;;6.43;4.80;;;;;;;;;;5003702;28;20056;-84
2022/06/30 02:21:20;;;;;;;5.47;4.95;;;;;;;;;;4996641;28;20031;-84
2022/06/30 02:23:47;;;;;;;7.80;5.28;;;;;;;;;;5010623;28;20021;-81
2022/06/30 02:26:12;;;;;;;5.55;4.90;;;;;;;;;;5010282;28;20068;-82
2022/06/30 02:28:38;;;;;;;4.95;4.50;;;;;;;;;;5014364;28;20054;-82
2022/06/30 02:31:04;;;;;;;6.32;4.80;;;;;;;;;;5006370;28;20105;-83
2022/06/30 02:33:30;;;;;;;5.25;4.28;;;;;;;;;;5011743;28;20050;-81
2022/06/30 02:35:56;;;;;;;6.80;4.70;;;;;;;;;;5001804;28;20026;-83
2022/06/30 02:38:22;;;;;;;5.68;4.78;;;;;;;;;;5010200;28;20030;-84
2022/06/30 02:40:48;;;;;;;6.78;4.85;;;;;;;;;;4998624;28;20030;-83
2022/06/30 02:43:14;;;;;;;5.85;5.25;;;;;;;;;;5015135;28;20045;-84
2022/06/30 02:45:41;;;;;;;7.72;4.82;;;;;;;;;;5015075;28;20033;-82
2022/06/30 02:48:07;;;;;;;6.47;5.53;;;;;;;;;;5013981;28;20026;-82
2022/06/30 02:50:33;;;;;;;8.50;5.63;;;;;;;;;;5010037;28;20029;-86
2022/06/30 02:52:59;;;;;;;6.43;4.95;;;;;;;;;;5009042;28;20386;-85
2022/06/30 02:55:25;;;;;;;4.97;4.47;;;;;;;;;;5015080;28;20103;-81
2022/06/30 02:57:51;;;;;;;5.25;4.47;;;;;;;;;;5014938;28;20030;-82
2022/06/30 03:00:17;;;;;;;4.93;4.53;;;;;;;;;;5002875;28;20022;-85
2022/06/30 03:02:43;;;;;;;5.15;4.60;;;;;;;;;;5009358;28;20030;-85
2022/06/30 03:05:10;;;;;;;8.90;5.18;;;;;;;;;;4994506;28;20036;-86
2022/06/30 03:07:36;;;;;;;6.78;5.03;;;;;;;;;;5012256;28;20391;-84
2022/06/30 03:10:02;;;;;;;6.13;5.13;;;;;;;;;;5006323;28;20080;-84
2022/06/30 03:12:29;;;;;;;5.72;4.90;;;;;;;;;;5014830;28;20033;-80
2022/06/30 03:14:55;;;;;;;5.53;4.95;;;;;;;;;;5010266;28;20528;-88
2022/06/30 03:17:22;;;;;;;6.80;5.15;;;17.80;99.90;;;;;;5013038;28;20060;-86
2022/06/30 03:19:47;;;;;;;5.47;4.97;;;17.70;99.90;;;;;;4998721;28;20075;-85
2022/06/30 03:22:13;;;;;;;5.57;4.47;;;17.60;99.90;;;;;;5014946;28;20141;-85
2022/06/30 03:24:38;;;;;;;5.70;4.63;;;17.60;99.90;;;;;;5013616;28;20529;-86
2022/06/30 03:27:04;;;;;;;7.88;4.60;;;17.50;99.90;;;;;;5002841;28;20031;-88
2022/06/30 03:29:30;;;;;;;5.88;5.28;;;17.50;99.90;;;;;;5007184;28;20490;-86
2022/06/30 03:31:56;;;;;;;5.55;4.90;;;17.40;99.90;;;;;;5013077;28;20034;-87
2022/06/30 03:34:21;;;;;;;4.95;4.45;;;17.40;99.90;;;;;;5013518;28;20042;-88
2022/06/30 03:36:47;;;;;;;4.72;4.25;;;17.40;99.90;;;;;;5012738;28;20034;-86
2022/06/30 03:39:12;;;;;;;5.50;4.95;;;17.40;99.90;;;;;;5015611;28;20037;-89
2022/06/30 03:41:38;;;;;;;6.82;5.25;;;17.40;99.90;;;;;;5014447;28;20040;-87
2022/06/30 03:44:04;;;;;;;5.30;4.63;;;17.30;99.90;;;;;;5007407;28;20030;-85
2022/06/30 03:46:30;;;;;;;5.15;4.45;;;17.30;99.90;;;;;;5013644;28;20030;-84
2022/06/30 03:48:56;;;;;;;5.88;5.20;;;17.30;99.90;;;;;;5015409;28;20045;-84
2022/06/30 03:51:22;;;;;;;5.30;4.75;;;17.30;99.90;;;;;;5004606;28;20477;-87
2022/06/30 03:53:47;;;;;;;5.60;5.10;;;17.30;99.90;;;;;;5011574;28;20022;-83
2022/06/30 03:56:13;;;;;;;7.13;5.28;;;17.40;99.90;;;;;;5009456;28;20030;-83
2022/06/30 03:58:39;;;;;;;7.32;5.30;;;17.40;99.90;;;;;;5019630;28;20041;-83
2022/06/30 04:01:04;;;;;;;6.68;5.40;;;17.40;99.90;;;;;;5010930;28;20029;-85
2022/06/30 04:03:31;;;;;;;9.38;5.15;;;17.40;99.90;;;;;;5009229;28;20062;-83
2022/06/30 04:05:56;;;;;;;7.68;4.90;;;17.50;99.90;;;;;;5008062;28;20526;-84
2022/06/30 04:08:22;;;;;;;5.82;4.90;;;17.50;99.90;;;;;;5003157;28;20127;-85
2022/06/30 04:10:48;;;;;;;6.95;5.43;;;17.60;99.90;;;;;;4998942;28;20163;-84
2022/06/30 04:13:14;;;;;;;4.70;4.30;;;17.60;99.90;;;;;;5009001;28;20054;-85
2022/06/30 04:15:39;;;;;;;4.93;4.40;;;17.60;99.90;;;;;;5007231;28;20046;-83
2022/06/30 04:18:05;;;;;;;6.43;4.80;;;17.60;99.90;;;;;;5000625;28;20061;-84
2022/06/30 04:20:31;;;;;;;5.40;4.47;;;17.60;99.90;;;;;;5000750;28;20105;-84
2022/06/30 04:22:56;;;;;;;5.63;4.55;;;17.70;99.90;;;;;;5007126;28;20030;-88
2022/06/30 04:25:22;;;;;;;4.53;4.13;;;17.70;99.90;;;;;;5012098;28;20052;-81
2022/06/30 04:27:52;;;;;;;6.25;4.75;;;17.80;99.90;;;;;;5014237;28;20022;-85
2022/06/30 04:32:37;;;;;;;6.67;4.93;;;17.80;99.90;;;;;;5004629;28;20387;-84
2022/06/30 04:33:05;;;;;;;7.22;5.38;;;17.90;99.90;;;;;;5008914;28;20638;-81
2022/06/30 04:35:30;;;;;;;5.90;4.65;;;17.90;99.90;;;;;;5016458;28;20049;-79
2022/06/30 04:38:00;;;;;;;6.43;4.65;;;18.00;99.90;;;;;;5016531;28;20034;-85
2022/06/30 04:43:10;;;;;;;8.02;4.75;;;18.10;99.90;;;;;;5026930;28;20109;-82
2022/06/30 04:45:36;;;;;;;6.57;4.70;;;18.20;99.90;;;;;;5036494;28;20022;-83
2022/06/30 04:48:02;;;;;;;5.70;5.03;;;18.30;99.90;;;;;;5036985;28;20056;-83
2022/06/30 04:50:29;;;;;;;8.60;6.22;;;18.40;99.90;;;;;;5024580;28;20038;-79
2022/06/30 04:52:54;;;;;;;7.18;6.20;;;18.50;99.90;;;;;;5032129;28;20091;-82
2022/06/30 04:55:20;;;;;;;6.82;6.22;;;18.60;99.90;;;;;;5037259;28;20057;-85
2022/06/30 04:57:46;;;;;;;10.77;7.15;;;18.70;99.90;;;;;;5039463;28;20040;-80
2022/06/30 05:00:12;;;;;;;9.48;7.32;;;18.80;99.90;;;;;;5012918;28;20120;-87
2022/06/30 05:02:38;;;;;;;9.18;7.00;;;18.90;99.90;;;;;;5004047;28;20092;-86
2022/06/30 05:05:04;;;;;;;8.45;6.60;;;19.00;99.90;;;;;;5020532;28;20082;-86
2022/06/30 05:07:29;;;;;;;6.80;6.07;;;19.00;99.90;;;;;;5011591;28;20142;-84
2022/06/30 05:09:55;;;;;;;7.55;6.20;;;19.10;99.90;;;;;;5007347;28;20061;-84
2022/06/30 05:12:21;;;;;;;6.60;6.00;;;19.10;99.90;;;;;;5005325;28;20026;-81
2022/06/30 05:14:46;;;;;;;6.15;5.65;;;19.20;99.90;;;;;;5012340;28;20284;-85
2022/06/30 05:17:12;;;;;;;8.15;7.03;;;19.30;99.90;;;;;;5012568;28;20052;-85
2022/06/30 05:19:38;;;;;;;8.68;6.75;;;19.40;99.90;;;;;;5012750;28;20109;-82
2022/06/30 05:22:04;;;;;;;11.23;6.85;;;19.50;99.90;;;;;;5007069;28;20033;-82
2022/06/30 05:27:13;;;;;;;6.93;6.22;;;19.80;99.90;;;;;;5016910;28;20045;-80
2022/06/30 05:29:39;;;;;;;11.25;6.50;;;19.90;99.90;;;;;;5011956;28;20374;-84
2022/06/30 05:32:05;;;;;;;9.88;6.70;;;20.00;99.90;;;;;;5011263;28;20116;-84
2022/06/30 05:34:31;;;;;;;10.98;6.72;;;20.10;99.90;;;;;;5000224;28;20148;-81
2022/06/30 05:36:57;;;;;;;9.70;6.85;;;20.20;99.90;;;;;;5010628;28;20447;-83
2022/06/30 05:39:22;;;;;;;10.70;6.90;;;20.40;99.90;;;;;;4985125;28;20034;-79
2022/06/30 05:41:48;;;;;;;12.02;7.32;;;20.50;99.90;;;;;;4998890;28;20150;-75
2022/06/30 05:44:13;;;;;;;9.25;6.25;;;20.60;99.90;;;;;;4998761;28;20022;-78
2022/06/30 05:46:39;;;;;;;9.95;6.72;;;20.70;99.90;;;;;;5006169;28;20030;-80
2022/06/30 05:49:06;;;;;;;9.85;6.47;;;20.80;99.90;;;;;;5011322;28;20097;-79
2022/06/30 05:51:32;;;;;;;14.02;7.50;;;20.90;99.90;;;;;;5010335;28;20364;-83
2022/06/30 05:53:58;;;;;;;7.90;7.10;;;21.00;99.90;;;;;;5012530;28;20029;-80
2022/06/30 05:56:24;;;;;;;8.30;6.60;;;21.10;99.90;;;;;;4986121;28;20192;-83
2022/06/30 05:58:49;;;;;;;9.77;7.55;;;21.20;99.90;;;;;;4999054;28;20044;-82
2022/06/30 06:01:15;;;;;;;8.77;7.00;;;21.30;99.90;;;;;;5003770;28;20035;-82
2022/06/30 06:03:41;;;;;;;13.15;7.68;;;21.30;99.90;;;;;;5003146;28;20467;-82
2022/06/30 06:06:06;;;;;;;10.55;7.32;;;21.40;99.90;;;;;;4992841;28;20085;-83
2022/06/30 06:08:32;;;;;;;7.82;6.75;;;21.50;99.90;;;;;;5009565;28;20021;-86
2022/06/30 06:10:57;;;;;;;13.05;7.13;;;21.50;99.90;;;;;;4989476;28;20034;-84
2022/06/30 06:13:23;;;;;;;8.50;6.97;;;21.50;99.90;;;;;;5009257;28;20026;-84
2022/06/30 06:15:49;;;;;;;12.98;7.47;;;21.50;99.90;;;;;;5006912;28;20040;-84
2022/06/30 06:19:17;;;;;;;13.25;7.55;;;21.70;99.90;;;;;;5071217;28;20390;-79
2022/06/30 06:21:43;;;;;;;12.68;7.47;;;21.80;99.90;;;;;;5067714;28;20575;-76
2022/06/30 06:24:08;;;;;;;11.45;7.47;;;21.90;99.90;;;;;;5049538;28;20025;-77
2022/06/30 06:26:34;;;;;;;10.27;7.88;;;21.90;99.90;;;;;;5055238;28;20029;-77
2022/06/30 06:29:05;;;;;;;11.65;7.63;;;22.00;99.90;;;;;;5058501;28;20040;-79
2022/06/30 06:31:32;;;;;;;12.68;7.78;;;22.00;99.90;;;;;;5054887;28;20025;-77
2022/06/30 06:33:58;;;;;;;8.90;6.63;;;22.20;99.90;;;;;;5060361;28;20021;-79
2022/06/30 06:36:23;;;;;;;11.35;7.07;;;22.30;99.90;;;;;;5057130;28;20029;-78
2022/06/30 06:38:49;;;;;;;11.32;6.97;;;22.40;99.90;;;;;;5055014;28;20087;-79
2022/06/30 06:41:15;;;;;;;13.70;7.32;;;22.50;99.90;;;;;;5061957;28;20025;-80
2022/06/30 06:43:41;;;;;;;8.02;5.75;;;22.70;99.90;;;;;;5056781;28;20041;-80
2022/06/30 06:46:06;;;;;;;7.90;6.28;;;22.80;99.90;;;;;;5048385;28;20029;-79
2022/06/30 06:48:32;;;;;;;8.38;5.65;;;22.90;99.90;;;;;;5050627;28;20033;-79
2022/06/30 06:50:58;;;;;;;8.18;5.82;;;23.10;99.90;;;;;;5060038;28;20044;-78
2022/06/30 06:53:24;;;;;;;8.20;5.07;;;23.30;99.90;;;;;;5066726;28;20029;-79
2022/06/30 06:55:50;;;;;;;13.80;5.60;;;23.50;99.90;;;;;;5061887;28;20525;-78
2022/06/30 06:58:15;;;;;;;7.43;4.93;;;23.60;99.90;;;;;;5053253;28;20044;-78
2022/06/30 07:00:41;;;;;;;7.70;4.53;;;23.80;99.90;;;;;;5060912;28;20033;-80
2022/06/30 07:03:07;;;;;;;7.05;4.82;;;24.00;99.90;;;;;;5069075;28;20024;-79
2022/06/30 07:05:33;;;;;;;10.20;4.63;;;24.20;99.90;;;;;;5067569;28;20083;-80
2022/06/30 07:08:00;;;;;;;5.60;4.68;;;24.30;99.90;;;;;;5065125;28;20056;-80
2022/06/30 07:10:26;;;;;;;6.00;4.47;;;24.40;99.90;;;;;;5066218;28;20025;-80
2022/06/30 07:12:52;;;;;;;6.68;4.70;;;24.50;99.90;;;;;;5052710;28;20437;-79
2022/06/30 07:15:19;;;;;;;7.38;4.72;;;24.60;99.90;;;;;;5049692;28;20069;-79
2022/06/30 07:17:44;;;;;;;12.30;4.07;;;24.80;99.90;;;;;;5057395;28;20209;-79
2022/06/30 07:20:11;;;;;;;9.20;5.10;;;24.80;99.90;;;;;;5064530;28;20466;-78
2022/06/30 07:22:36;;;;;;;6.75;4.57;;;25.00;99.90;;;;;;5051379;28;20683;-77
2022/06/30 07:25:03;;;;;;;7.40;4.20;;;25.00;99.90;;;;;;5060646;28;20032;-78
2022/06/30 07:27:29;;;;;;;6.25;4.55;;;25.10;99.90;;;;;;5056463;28;20141;-79
2022/06/30 07:29:55;;;;;;;6.95;3.90;;;25.30;99.90;;;;;;5048704;28;20493;-78
2022/06/30 07:32:21;;;;;;;6.72;4.45;;;25.30;99.90;;;;;;5040077;28;20021;-78
2022/06/30 07:34:46;;;;;;;7.03;4.13;;;25.30;99.90;;;;;;5039490;28;20167;-79
2022/06/30 07:37:12;;;;;;;6.40;4.13;;;25.30;99.90;;;;;;5052068;28;20087;-78
2022/06/30 07:39:38;;;;;;;5.28;4.25;;;25.40;99.90;;;;;;5044219;28;20033;-77
2022/06/30 07:42:03;;;;;;;6.45;4.35;;;25.50;99.90;;;;;;5035783;28;20028;-79
2022/06/30 07:44:29;;;;;;;6.13;4.00;;;25.60;99.90;;;;;;5030266;28;20094;-80
2022/06/30 07:46:55;;;;;;;7.53;4.78;;;25.60;99.90;;;;;;5048377;28;20381;-79
2022/06/30 07:49:21;;;;;;;4.68;3.90;;;25.80;99.90;;;;;;5046656;28;20075;-79
2022/06/30 07:51:48;;;;;;;5.90;3.75;;;25.90;99.90;;;;;;5050014;28;20423;-78
2022/06/30 07:54:14;;;;;;;7.60;4.32;;;26.00;99.90;;;;;;5036505;28;20156;-78
2022/06/30 07:56:40;;;;;;;6.63;4.13;;;26.10;99.90;;;;;;5035127;28;20105;-78
2022/06/30 07:59:05;;;;;;;6.35;4.20;;;26.20;99.90;;;;;;5043221;28;20071;-78
2022/06/30 08:01:31;;;;;;;4.65;3.33;;;26.20;99.90;;;;;;5043690;28;20425;-80
2022/06/30 08:03:57;;;;;;;5.22;3.00;;;26.20;99.90;;;;;;5039921;28;20040;-78
2022/06/30 08:06:24;;;;;;;7.75;4.57;;;26.30;99.90;;;;;;5041655;28;20233;-78
2022/06/30 08:08:52;;;;;;;6.55;4.30;;;26.50;99.90;;;;;;5052497;28;20072;-79
2022/06/30 08:11:18;;;;;;;10.15;4.72;;;26.70;99.90;;;;;;5052926;28;20100;-78
2022/06/30 08:13:44;;;;;;;8.43;4.32;;;26.70;99.90;;;;;;5044449;28;20059;-76
2022/06/30 08:16:11;;;;;;;10.95;4.78;;;26.90;99.90;;;;;;5041805;28;20029;-78
2022/06/30 08:18:37;;;;;;;7.05;4.53;;;26.90;99.90;;;;;;5044692;28;20072;-78
2022/06/30 08:21:03;;;;;;;7.22;5.15;;;26.90;99.90;;;;;;5044073;28;20466;-79
2022/06/30 08:23:29;;;;;;;8.57;5.05;;;26.90;99.90;;;;;;5040268;28;20075;-78
2022/06/30 08:25:55;;;;;;;7.43;4.90;;;26.90;99.90;;;;;;5052807;28;20431;-77
2022/06/30 08:28:20;;;;;;;8.18;4.75;;;27.00;99.90;;;;;;5052971;28;20041;-78
2022/06/30 08:30:48;;;;;;;5.75;4.60;;;27.00;99.90;;;;;;5043933;28;20223;-77
2022/06/30 08:33:14;;;;;;;8.60;5.07;;;27.10;99.90;;;;;;5041023;28;20040;-79
2022/06/30 08:35:40;;;;;;;8.23;4.72;;;27.20;99.90;;;;;;5042911;28;20035;-79
2022/06/30 08:38:06;;;;;;;9.20;5.30;;;27.40;99.60;;;;;;5035634;28;20036;-79
2022/06/30 08:43:19;;;;;;;6.38;4.10;;;27.50;98.80;;;;;;5049021;28;20037;-79
2022/06/30 08:45:46;;;;;;;6.70;4.03;;;27.70;97.30;;;;;;5049675;28;20148;-76
2022/06/30 08:48:12;;;;;;;6.75;3.50;;;27.70;97.10;;;;;;5039634;28;20033;-79
2022/06/30 08:50:43;;;;;;;11.15;4.05;;;27.80;97.50;;;;;;5044772;28;20493;-78
2022/06/30 08:53:09;;;;;;;;;;;27.90;96.30;;;;;;5034650;28;20213;-77
2022/06/30 08:55:35;;;;;;;4.03;3.10;;;27.90;96.00;;;;;;5039839;28;20008;-79
2022/06/30 08:58:05;;;;;;;4.93;3.30;;;27.90;95.40;;;;;;5040522;28;20060;-78
2022/06/30 09:00:33;;;;;;;6.30;3.90;;;27.90;95.40;;;;;;5045528;28;20436;-80
2022/06/30 09:02:58;;;;;;;9.05;4.05;;;28.10;95.90;;;;;;5049238;28;20037;-80
2022/06/30 09:05:24;;;;;;;6.45;3.67;;;28.20;95.80;;;;;;5046617;28;20037;-78
2022/06/30 09:07:50;;;;;;;7.03;3.63;;;28.30;95.70;;;;;;5034270;28;20037;-79
2022/06/30 09:10:15;;;;;;;12.02;4.28;;;28.50;95.40;;;;;;5038495;28;20738;-78
2022/06/30 09:12:55;;;;;;;7.25;4.18;;;28.80;95.10;;;;;;5037094;28;20109;-79
2022/06/30 09:15:21;;;;;;;;;;;28.90;94.70;;;;;;5052351;28;20470;-79
2022/06/30 09:17:47;;;;;;;14.07;3.97;;;28.90;94.30;;;;;;5036940;28;19922;-79
2022/06/30 09:20:14;;;;;;;9.48;4.25;;;29.00;94.70;;;;;;5038930;28;20037;-76
2022/06/30 09:22:41;;;;;;;5.80;3.42;;;29.00;93.40;;;;;;5040751;28;20473;-79
2022/06/30 09:25:22;;;;;;;4.80;3.40;;;29.00;92.70;;;;;;5037838;28;20025;-79
2022/06/30 09:27:48;;;;;;;5.65;3.38;;;29.10;91.90;;;;;;5032733;28;20035;-78
2022/06/30 09:30:18;;;;;;;6.30;3.08;;;29.20;91.20;;;;;;5042463;28;20025;-77
2022/06/30 09:32:50;;;;;;;8.73;3.33;;;29.30;88.80;;;;;;5047200;28;20421;-78
2022/06/30 09:35:17;;;;;;;8.00;3.00;;;29.40;88.70;;;;;;5047475;28;20431;-78
2022/06/30 09:37:43;;;;;;;8.88;3.50;;;29.60;87.50;;;;;;5048283;28;20031;-79
2022/06/30 09:40:10;;;;;;;8.43;3.95;;;29.80;88.60;;;;;;5042470;28;20032;-78
2022/06/30 09:42:45;;;;;;;8.18;3.92;;;29.90;90.30;;;;;;5049051;28;20029;-79
2022/06/30 09:45:13;;;;;;;6.70;4.20;;;30.20;99.90;;;;;;5051187;28;20061;-80
2022/06/30 09:47:52;;;;;;;4.05;3.33;;;30.40;99.90;;;;;;5041105;28;20359;-81
2022/06/30 09:50:20;;;;;;;8.65;3.80;;;;;;;;;;5037458;28;20059;-80
2022/06/30 09:52:48;;;;;;;6.72;4.05;;;;;;;;;;5030920;28;20029;-79
2022/06/30 09:55:15;;;;;;;4.68;3.60;;;;;;;;;;5040980;28;20037;-82
2022/06/30 09:57:46;;;;;;;11.15;4.15;;;;;;;;;;5048876;28;20029;-80
2022/06/30 10:00:17;;;;;;;9.63;3.92;;;;;;;;;;5048603;28;20084;-79
2022/06/30 10:02:47;;;;;;;6.10;3.70;;;;;;;;;;5046412;28;20539;-80
2022/06/30 10:05:15;;;;;;;5.13;3.43;;;;;;;;;;5043113;28;20078;-78
2022/06/30 10:07:42;;;;;;;6.22;4.03;;;;;;;;;;5040217;28;20115;-80
2022/06/30 10:10:12;;;;;;;7.93;4.05;;;;;;;;;;5048751;28;20057;-79
2022/06/30 10:12:40;;;;;;;6.40;3.65;;;;;;;;;;5036431;28;20440;-80
2022/06/30 10:15:07;;;;;;;5.60;3.70;;;;;;;;;;5032045;28;20112;-79
2022/06/30 10:17:34;;;;;;;7.05;3.90;;;;;;;;;;5036644;28;20053;-79
2022/06/30 10:20:01;;;;;;;6.35;2.97;;;;;;;;;;5030712;28;20382;-77
2022/06/30 10:22:28;;;;;;;3.38;2.88;;;;;;;;;;5041599;28;20033;-78
2022/06/30 10:24:55;;;;;;;7.70;3.67;;;;;;;;;;5040848;28;20056;-79
2022/06/30 10:27:24;;;;;;;5.20;2.80;;;;;;;;;;5047231;28;20445;-80
2022/06/30 10:29:55;;;;;;;4.78;2.90;;;;;;;;;;5044372;28;20028;-80
2022/06/30 10:32:21;;;;;;;4.50;2.85;;;;;;;;;;5031458;28;20029;-79
2022/06/30 10:34:55;;;;;;;6.32;3.47;;;;;;;;;;5045590;28;20021;-80
2022/06/30 10:37:24;;;;;;;7.38;3.17;;;;;;;;;;5037905;28;20056;-80
2022/06/30 10:40:00;;;;;;;6.75;2.67;;;;;;;;;;5033395;28;20055;-79
2022/06/30 10:42:55;;;;;;;4.82;2.80;;;30.80;97.40;;;;;;5042269;28;20021;-79
2022/06/30 10:45:30;;;;;;;3.72;2.60;;;30.80;73.70;;;;;;5049711;28;20561;-79
2022/06/30 10:47:57;;;;;;;3.60;2.78;;;31.00;72.50;;;;;;5040264;28;20056;-80
2022/06/30 10:50:39;;;;;;;7.47;2.88;;;30.90;72.80;;;;;;5041424;28;20389;-79
2022/06/30 10:53:07;;;;;;;3.72;2.63;;;31.10;72.40;;;;;;5037991;28;20385;-79
2022/06/30 10:55:55;;;;;;;4.10;2.78;;;31.00;72.30;;;;;;5037221;28;20025;-79
2022/06/30 10:58:22;;;;;;;5.75;2.80;;;31.00;72.00;;;;;;5038967;28;20072;-79
2022/06/30 11:01:11;;;;;;;7.10;2.95;;;31.00;71.70;;;;;;5044198;28;20029;-80
2022/06/30 11:03:39;;;;;;;6.60;3.57;;;31.30;72.10;;;;;;5048160;28;20021;-80
2022/06/30 11:06:07;;;;;;;4.60;2.72;;;31.40;71.00;;;;;;5053372;28;20493;-79
2022/06/30 11:08:36;;;;;;;4.47;3.05;;;31.40;70.50;;;;;;5044987;28;20099;-78
2022/06/30 11:11:20;;;;;;;6.60;2.58;;;31.40;70.40;;;;;;5041718;28;20444;-80
2022/06/30 11:13:47;;;;;;;7.03;2.90;;;31.50;69.90;;;;;;5051396;28;20057;-80
2022/06/30 11:16:17;;;;;;;5.57;2.53;;;31.50;70.30;;;;;;5053497;28;20029;-79
2022/06/30 11:18:43;;;;;;;4.63;3.00;;;31.50;69.90;;;;;;5034717;28;20056;-80
2022/06/30 11:21:09;;;;;;;6.22;3.00;;;31.60;69.10;;;;;;5045083;28;20032;-80
2022/06/30 11:23:44;;;;;;;13.52;3.05;;;31.60;68.90;;;;;;5053784;28;20381;-78
2022/06/30 11:28:56;;;;;;;5.43;2.80;;;31.50;69.20;;;;;;5038584;28;20114;-79
2022/06/30 11:31:27;;;;;;;6.40;2.97;;;31.50;69.30;;;;;;5048501;28;20450;-79
2022/06/30 11:34:05;;;;;;;7.03;2.85;;;31.70;69.30;;;;;;5044356;28;20029;-78
2022/06/30 11:36:36;;;;;;;6.80;2.90;;;31.90;67.80;;;;;;5053733;28;20044;-80
2022/06/30 11:39:11;;;;;;;4.32;2.95;;;32.00;66.10;;;;;;5045528;28;20417;-79
2022/06/30 11:44:34;;;;;;;5.13;3.47;;;32.20;66.50;;;;;;5027078;28;20037;-77
2022/06/30 11:47:10;;;;;;;5.97;3.10;;;32.30;66.00;;;;;;5048232;28;20104;-77
2022/06/30 11:49:46;;;;;;;5.85;2.80;;;32.40;67.30;;;;;;5045126;28;20036;-76
2022/06/30 11:52:38;;;;;;;3.33;2.65;;;32.30;68.00;;;;;;5047637;28;20079;-77
2022/06/30 11:55:12;;;;;;;10.50;3.42;;;32.20;66.50;;;;;;5051117;28;20498;-77
2022/06/30 11:57:43;;;;;;;4.82;2.85;;;32.20;64.80;;;;;;5043801;28;20044;-77
2022/06/30 12:00:15;;;;;;;6.50;2.90;;;32.30;65.70;;;;;;5044547;28;20509;-76
2022/06/30 12:02:43;;;;;;;5.85;2.92;;;32.50;65.10;;;;;;5033285;28;20054;-77
2022/06/30 12:05:11;;;;;;;6.00;2.88;;;32.70;64.70;;;;;;5050716;28;20453;-76
2022/06/30 12:07:38;;;;;;;6.82;2.58;;;33.00;64.60;;;;;;5048461;28;20106;-76
2022/06/30 12:10:06;;;;;;;4.30;3.10;;;33.10;63.80;;;;;;5051715;28;20029;-75
2022/06/30 12:12:33;;;;;;;7.22;3.00;;;33.30;63.50;;;;;;5045122;28;20025;-76
2022/06/30 12:15:02;;;;;;;3.58;2.97;;;33.40;64.10;;;;;;5050208;28;20335;-76
2022/06/30 12:17:36;;;;;;;6.63;3.08;;;33.60;75.70;;;;;;5041836;28;20064;-76
2022/06/30 12:20:06;;;;;;;4.82;3.00;;;;;;;;;;5033305;28;20029;-76
2022/06/30 12:22:32;;;;;;;6.03;2.85;;;;;;;;;;5052265;28;20025;-77
2022/06/30 12:24:58;;;;;;;10.48;3.28;;;;;;;;;;5042599;28;20098;-76
2022/06/30 12:27:28;;;;;;;5.10;2.80;;;;;;;;;;5043643;28;20029;-76
2022/06/30 12:30:00;;;;;;;3.78;2.85;;;;;;;;;;5051622;28;20021;-77
2022/06/30 12:32:26;;;;;;;7.13;2.58;;;;;;;;;;5045586;28;20014;-75
2022/06/30 12:34:58;;;;;;;6.15;3.50;;;34.40;60.00;;;;;;5032428;28;20029;-76
2022/06/30 12:37:29;;;;;;;6.03;3.10;;;34.40;59.50;;;;;;5035540;28;20025;-75
2022/06/30 12:39:57;;;;;;;6.63;3.00;;;34.30;59.50;;;;;;5051628;28;20036;-76
2022/06/30 12:42:24;;;;;;;6.40;3.53;;;34.30;59.00;;;;;;5052568;28;20029;-75
2022/06/30 12:44:49;;;;;;;5.50;2.38;;;34.20;59.60;;;;;;5051226;28;20120;-75
2022/06/30 12:47:15;;;;;;;4.30;2.88;;;34.00;58.80;;;;;;5047502;28;20104;-75
2022/06/30 12:49:41;;;;;;;3.15;2.75;;;34.00;59.90;;;;;;5050448;28;20108;-74
2022/06/30 12:52:18;;;;;;;6.18;2.88;;;33.90;59.60;;;;;;5051466;28;20033;-75
2022/06/30 12:54:58;;;;;;;5.15;2.90;;;34.00;60.20;;;;;;5046681;28;20029;-75
2022/06/30 12:57:25;;;;;;;5.25;2.72;;;34.20;59.80;;;;;;5037077;28;20032;-75
2022/06/30 12:59:53;;;;;;;3.67;2.75;;;34.30;60.00;;;;;;5043941;28;20084;-76
2022/06/30 13:02:20;;;;;;;6.60;2.45;;;34.40;58.00;;;;;;5043641;28;20032;-76
2022/06/30 13:04:52;;;;;;;4.50;2.83;;;34.50;59.10;;;;;;5049569;28;20064;-76
2022/06/30 13:07:21;;;;;;;4.90;2.88;;;34.70;59.00;;;;;;5051446;28;20389;-75
2022/06/30 13:09:49;;;;;;;5.10;2.67;;;34.80;58.60;;;;;;5049373;28;20051;-75
2022/06/30 13:12:15;;;;;;;2.85;2.60;;;34.80;58.10;;;;;;5031620;28;20029;-75
2022/06/30 13:14:41;;;;;;;4.60;2.90;;;34.90;58.70;;;;;;5044868;28;20030;-76
2022/06/30 13:17:07;;;;;;;4.45;2.80;;;35.10;58.80;;;;;;5045572;28;20053;-75
2022/06/30 13:19:33;;;;;;;8.07;3.28;;;35.10;58.40;;;;;;5048359;28;20108;-75
2022/06/30 13:21:59;;;;;;;4.10;3.03;;;35.10;58.90;;;;;;5046967;28;20041;-75
2022/06/30 13:24:25;;;;;;;5.10;3.13;;;34.80;58.70;;;;;;5046165;28;20033;-75
2022/06/30 13:26:51;;;;;;;4.45;2.80;;;34.70;60.40;;;;;;5049267;28;20020;-75